Time;durP1;ratioP1;P1;durP2;ratioP2;P2;SDS_P1;SDS_P2;PMS_P1;PMS_P2;Temp;Humidity;BMP_temperature;BMP_pressure;BME280_temperature;BME280_humidity;BME280_pressure;Samples;Min_cycle;Max_cycle;Signal;HPM_P1;HPM_P2
2023/04/24 00:00:00;;;;;;;3.05;1.63;;;;;;;19.14;46.76;99934.91;4994495;28;20048;-68
2023/04/24 00:02:26;;;;;;;2.65;1.40;;;;;;;19.15;46.74;99928.63;4983203;28;20033;-69
2023/04/24 00:04:51;;;;;;;3.50;1.70;;;;;;;19.13;46.69;99922.69;4990423;28;20391;-68
2023/04/24 00:07:16;;;;;;;3.78;1.48;;;;;;;19.12;46.87;99921.88;4982370;28;20394;-68
2023/04/24 00:09:43;;;;;;;2.90;1.55;;;;;;;19.12;46.83;99929.78;4982610;28;20034;-68
2023/04/24 00:12:09;;;;;;;3.47;1.60;;;;;;;19.10;46.79;99918.53;4997601;28;20046;-69
2023/04/24 00:14:34;;;;;;;4.63;1.73;;;;;;;19.09;46.90;99929.25;4990956;28;20049;-69
2023/04/24 00:17:00;;;;;;;4.30;2.00;;;;;;;19.08;46.63;99920.50;4999958;28;20050;-68
2023/04/24 00:19:25;;;;;;;4.13;2.00;;;;;;;19.09;46.73;99930.09;4993575;28;20057;-68
2023/04/24 00:21:50;;;;;;;3.47;1.60;;;;;;;19.07;46.54;99923.28;4982601;28;20121;-68
2023/04/24 00:24:17;;;;;;;3.63;2.00;;;;;;;19.06;46.68;99930.41;4964470;28;20745;-69
2023/04/24 00:26:42;;;;;;;3.67;1.88;;;;;;;19.08;46.55;99938.97;4981630;28;20034;-67
2023/04/24 00:29:07;;;;;;;3.90;2.00;;;;;;;19.06;46.51;99929.53;4995911;28;20037;-69
2023/04/24 00:31:34;;;;;;;5.03;2.17;;;;;;;19.05;46.64;99938.47;5001128;28;20049;-68
2023/04/24 00:34:03;;;;;;;5.75;2.10;;;;;;;19.06;46.74;99934.81;4982036;28;20041;-69
2023/04/24 00:36:28;;;;;;;3.92;2.08;;;;;;;19.03;46.56;99931.53;4998166;28;20050;-68
2023/04/24 00:38:54;;;;;;;5.40;2.40;;;;;;;19.04;46.65;99948.19;4985997;28;20459;-67
2023/04/24 00:41:21;;;;;;;3.70;2.20;;;;;;;19.03;46.30;99942.09;4986511;28;20037;-69
2023/04/24 00:43:46;;;;;;;4.65;2.40;;;;;;;19.03;46.50;99946.53;5001454;28;20068;-69
2023/04/24 00:46:12;;;;;;;4.75;2.03;;;;;;;19.02;46.57;99948.34;4993488;28;20121;-69
2023/04/24 00:48:39;;;;;;;3.60;2.13;;;;;;;19.02;46.49;99947.50;4998457;28;20070;-69
2023/04/24 00:51:04;;;;;;;5.40;2.40;;;;;;;19.01;46.71;99945.88;4992855;28;20037;-69
2023/04/24 00:53:30;;;;;;;4.18;2.30;;;;;;;18.99;46.74;99939.91;4981842;28;20039;-68
2023/04/24 00:55:56;;;;;;;5.85;2.50;;;;;;;18.97;46.61;99942.69;4996881;28;20490;-68
2023/04/24 00:58:22;;;;;;;4.43;2.17;;;;;;;19.00;46.54;99946.84;4996669;28;20038;-68
2023/04/24 01:00:50;;;;;;;5.45;2.83;;;;;;;18.98;46.39;99946.19;4981760;28;20034;-69
2023/04/24 01:03:15;;;;;;;5.50;2.45;;;;;;;18.98;46.44;99940.91;4988124;28;20029;-68
2023/04/24 01:05:42;;;;;;;5.60;2.53;;;;;;;18.96;46.29;99941.03;4990486;28;20041;-69
2023/04/24 01:08:07;;;;;;;4.15;2.10;;;;;;;18.95;46.42;99935.91;4987496;28;20133;-68
2023/04/24 01:10:34;;;;;;;5.28;2.65;;;;;;;18.95;46.40;99941.19;4985618;28;20145;-69
2023/04/24 01:13:00;;;;;;;5.45;2.85;;;;;;;18.94;46.53;99942.16;4986504;28;20037;-68
2023/04/24 01:15:25;;;;;;;6.00;2.40;;;;;;;18.95;46.58;99938.56;5000218;28;20030;-67
2023/04/24 01:17:51;;;;;;;4.28;2.50;;;;;;;18.95;46.68;99939.38;5000803;28;20038;-68
2023/04/24 01:20:17;;;;;;;5.90;2.65;;;;;;;18.94;46.42;99935.06;4994543;28;20030;-67
2023/04/24 01:22:42;;;;;;;5.60;2.70;;;;;;;18.93;46.48;99933.44;4993895;28;20038;-69
2023/04/24 01:25:08;;;;;;;7.15;2.70;;;;;;;18.92;46.46;99933.56;5002823;28;20054;-68
2023/04/24 01:27:34;;;;;;;5.35;2.42;;;;;;;18.89;46.45;99936.53;4988555;28;20038;-69
2023/04/24 01:29:59;;;;;;;5.57;2.60;;;;;;;18.89;46.44;99932.06;5004747;28;20385;-68
2023/04/24 01:32:25;;;;;;;4.55;2.45;;;;;;;18.91;46.47;99939.81;5004794;28;20145;-69
2023/04/24 01:34:51;;;;;;;5.07;2.67;;;;;;;18.90;46.43;99943.44;5004521;28;20026;-69
2023/04/24 01:37:16;;;;;;;4.45;2.70;;;;;;;18.89;46.50;99945.25;5001103;28;20046;-69
2023/04/24 01:39:43;;;;;;;4.32;2.33;;;;;;;18.91;46.57;99939.81;4984939;28;20085;-69
2023/04/24 01:42:08;;;;;;;5.95;3.00;;;;;;;18.91;46.51;99942.47;4985536;28;20062;-68
2023/04/24 01:44:34;;;;;;;4.90;2.72;;;;;;;18.87;46.41;99933.19;5000822;28;20057;-69
2023/04/24 01:47:00;;;;;;;6.00;2.88;;;;;;;18.90;46.59;99932.88;4999939;28;20069;-69
2023/04/24 01:49:26;;;;;;;5.30;2.65;;;;;;;18.89;46.38;99945.25;4989869;28;20049;-68
2023/04/24 01:51:52;;;;;;;4.93;2.60;;;;;;;18.89;46.40;99936.53;4967391;28;20042;-68
2023/04/24 01:54:17;;;;;;;5.90;2.83;;;;;;;18.89;46.41;99945.25;5000434;28;20034;-69
2023/04/24 01:56:43;;;;;;;5.35;2.80;;;;;;;18.87;46.18;99943.75;5003955;28;20103;-69
2023/04/24 01:59:12;;;;;;;6.20;3.03;;;;;;;18.88;46.39;99946.22;5004480;28;20176;-69
2023/04/24 02:01:38;;;;;;;4.90;2.78;;;;;;;18.85;46.26;99944.75;5004144;28;20048;-68
2023/04/24 02:04:05;;;;;;;5.18;3.05;;;;;;;18.87;46.34;99949.00;5004140;28;20095;-68
2023/04/24 02:06:31;;;;;;;5.60;3.20;;;;;;;18.84;46.36;99948.34;4995346;28;20030;-68
2023/04/24 02:08:59;;;;;;;6.53;3.20;;;;;;;18.84;46.19;99951.00;4984644;28;20037;-69
2023/04/24 02:11:25;;;;;;;7.25;2.95;;;;;;;18.84;46.29;99951.00;5000058;28;20148;-68
2023/04/24 02:13:51;;;;;;;5.22;3.15;;;;;;;18.84;46.22;99950.16;5004178;28;20188;-69
2023/04/24 02:16:16;;;;;;;6.18;2.92;;;;;;;18.83;46.27;99959.03;5003674;28;20038;-68
2023/04/24 02:18:41;;;;;;;5.95;2.80;;;;;;;18.82;46.34;99952.09;5003678;28;20040;-68
2023/04/24 02:21:07;;;;;;;5.40;3.03;;;;;;;18.80;46.21;99954.91;5004157;28;20860;-68
2023/04/24 02:23:32;;;;;;;4.78;3.00;;;;;;;18.79;45.91;99955.88;4994425;28;20042;-68
2023/04/24 02:25:57;;;;;;;5.70;3.20;;;;;;;18.82;46.22;99960.03;4998609;28;20049;-68
2023/04/24 02:28:23;;;;;;;5.80;3.20;;;;;;;18.81;46.08;99958.34;4984791;28;20295;-69
2023/04/24 02:30:48;;;;;;;6.72;3.40;;;;;;;18.81;45.86;99959.19;4976686;28;20037;-68
2023/04/24 02:33:13;;;;;;;6.33;3.50;;;;;;;18.79;46.00;99955.88;5003714;28;20044;-69
2023/04/24 02:35:38;;;;;;;4.73;3.13;;;;;;;18.81;46.20;99955.72;5000739;28;20738;-69
2023/04/24 02:38:04;;;;;;;5.40;3.17;;;;;;;18.80;46.13;99954.03;5004036;28;20271;-68
2023/04/24 02:40:29;;;;;;;6.15;3.20;;;;;;;18.78;46.10;99951.56;4994043;28;20290;-69
2023/04/24 02:42:55;;;;;;;5.15;3.47;;;;;;;18.78;46.12;99954.19;4997945;28;20973;-67
2023/04/24 02:45:20;;;;;;;5.70;2.95;;;;;;;18.78;46.15;99950.72;4992927;28;20038;-68
2023/04/24 02:47:45;;;;;;;6.53;4.18;;;;;;;18.76;46.05;99947.44;4997665;28;20053;-70
2023/04/24 02:50:10;;;;;;;5.55;3.30;;;;;;;18.78;46.15;99942.81;4992730;28;20043;-68
2023/04/24 02:52:36;;;;;;;6.10;3.22;;;;;;;18.77;46.23;99943.78;4984329;28;20368;-67
2023/04/24 02:55:02;;;;;;;6.30;3.20;;;;;;;18.74;46.13;99937.03;5002846;28;20458;-68
2023/04/24 02:57:27;;;;;;;5.03;3.28;;;;;;;18.76;46.13;99939.50;5003244;28;20148;-69
2023/04/24 02:59:52;;;;;;;5.88;3.03;;;;;;;18.76;45.79;99929.78;5003228;28;20034;-69
2023/04/24 03:02:17;;;;;;;5.93;3.20;;;;;;;18.72;46.00;99933.69;5002861;28;20393;-68
2023/04/24 03:04:43;;;;;;;4.70;2.92;;;;;;;18.73;46.12;99935.34;4998722;28;20268;-69
2023/04/24 03:07:08;;;;;;;6.05;3.05;;;;;;;18.74;46.24;99936.16;4983538;28;20053;-68
2023/04/24 03:09:33;;;;;;;6.03;3.05;;;;;;;18.70;46.07;99925.09;4988310;28;20447;-68
2023/04/24 03:11:59;;;;;;;6.30;3.33;;;;;;;18.73;46.23;99930.06;4989888;28;20030;-69
2023/04/24 03:14:24;;;;;;;6.72;3.10;;;;;;;18.74;46.02;99938.81;4984839;28;20319;-69
2023/04/24 03:16:50;;;;;;;4.47;2.90;;;;;;;18.74;46.11;99933.53;4983003;28;20137;-68
2023/04/24 03:19:15;;;;;;;6.65;3.45;;;;;;;18.71;46.09;99933.81;4991424;28;20684;-68
2023/04/24 03:21:41;;;;;;;4.55;3.00;;;;;;;18.70;45.85;99935.66;4983096;28;20038;-67
2023/04/24 03:24:09;;;;;;;5.38;3.03;;;;;;;18.69;46.23;99931.34;4990710;28;20467;-68
2023/04/24 03:26:35;;;;;;;7.55;3.10;;;;;;;18.68;45.90;99927.06;4999846;28;20038;-68
2023/04/24 03:29:00;;;;;;;5.13;2.88;;;;;;;18.69;46.09;99931.34;4999048;28;20088;-68
2023/04/24 03:31:25;;;;;;;4.95;3.20;;;;;;;18.68;46.13;99937.63;4982764;28;20038;-68
2023/04/24 03:33:51;;;;;;;5.53;3.10;;;;;;;18.70;46.27;99934.81;4983279;28;20036;-68
2023/04/24 03:36:17;;;;;;;6.60;2.90;;;;;;;18.67;46.05;99931.50;4983101;28;20030;-67
2023/04/24 03:38:42;;;;;;;5.05;2.78;;;;;;;18.68;45.85;99934.97;4985091;28;20044;-68
2023/04/24 03:41:07;;;;;;;5.20;3.00;;;;;;;18.66;45.69;99932.47;4989524;28;20120;-68
2023/04/24 03:43:34;;;;;;;6.37;3.27;;;;;;;18.66;46.03;99934.31;4965365;28;20383;-67
2023/04/24 03:45:59;;;;;;;4.40;2.80;;;;;;;18.66;46.13;99932.47;4988224;28;20287;-69
2023/04/24 03:48:25;;;;;;;5.50;3.05;;;;;;;18.69;46.03;99928.69;5002277;28;20026;-68
2023/04/24 03:50:50;;;;;;;5.33;2.77;;;;;;;18.69;45.95;99933.97;5002523;28;20124;-68
2023/04/24 03:53:15;;;;;;;6.17;2.60;;;;;;;18.68;45.80;99933.16;4993534;28;20259;-68
2023/04/24 03:55:40;;;;;;;5.15;2.60;;;;;;;18.66;46.03;99935.13;4993438;28;20276;-68
2023/04/24 03:58:06;;;;;;;5.28;2.83;;;;;;;18.64;46.02;99926.53;4983007;28;20026;-68
2023/04/24 04:00:32;;;;;;;5.03;2.72;;;;;;;18.66;46.02;99934.31;4982825;28;20034;-69
2023/04/24 04:02:57;;;;;;;5.78;2.83;;;;;;;18.64;45.89;99936.25;4982597;28;20084;-68
2023/04/24 04:05:22;;;;;;;4.85;2.92;;;;;;;18.65;46.02;99935.28;4985486;28;21297;-69
2023/04/24 04:07:48;;;;;;;5.80;3.28;;;;;;;18.64;46.04;99934.44;4982023;28;20034;-69
2023/04/24 04:10:13;;;;;;;4.77;2.73;;;;;;;18.64;46.09;99937.09;4982721;28;20037;-68
2023/04/24 04:12:39;;;;;;;5.20;3.00;;;;;;;18.64;45.90;99941.53;4986975;28;20303;-68
2023/04/24 04:15:06;;;;;;;5.88;2.50;;;;;;;18.63;46.08;99931.97;4995748;28;20034;-70
2023/04/24 04:17:32;;;;;;;5.05;2.60;;;;;;;18.65;45.99;99943.19;5001699;28;20044;-69
2023/04/24 04:19:57;;;;;;;5.22;2.85;;;;;;;18.63;46.00;99939.88;5001872;28;20033;-68
2023/04/24 04:22:22;;;;;;;5.73;2.50;;;;;;;18.64;46.18;99946.81;4986712;28;20030;-69
2023/04/24 04:24:47;;;;;;;4.88;2.80;;;;;;;18.62;46.12;99946.94;4996154;28;20379;-68
2023/04/24 04:27:13;;;;;;;5.00;2.50;;;;;;;18.61;45.84;99944.47;4998328;28;20030;-67
2023/04/24 04:29:39;;;;;;;4.90;2.65;;;;;;;18.59;45.79;99941.97;4997363;28;20084;-66
2023/04/24 04:32:05;;;;;;;4.93;2.80;;;;;;;18.60;45.70;99946.28;4996814;28;20032;-69
2023/04/24 04:34:31;;;;;;;4.28;2.45;;;;;;;18.62;45.54;99948.75;4986081;28;20058;-69
2023/04/24 04:36:59;;;;;;;4.38;2.53;;;;;;;18.62;45.80;99954.03;4983322;28;20139;-68
2023/04/24 04:39:24;;;;;;;5.45;2.63;;;;;;;18.63;45.76;99953.06;4993308;28;20084;-67
2023/04/24 04:41:50;;;;;;;4.70;2.38;;;;;;;18.56;45.84;99947.53;4990687;28;20037;-68
2023/04/24 04:44:15;;;;;;;4.78;2.63;;;;;;;18.61;45.61;99949.72;4981291;28;20053;-69
2023/04/24 04:46:41;;;;;;;4.63;2.58;;;;;;;18.62;45.80;99959.31;4994611;28;20030;-68
2023/04/24 04:49:08;;;;;;;4.72;2.50;;;;;;;18.55;45.61;99947.69;4989759;28;20033;-68
2023/04/24 04:51:33;;;;;;;4.38;2.45;;;;;;;18.58;45.81;99953.53;4976183;28;20045;-69
2023/04/24 04:53:59;;;;;;;4.00;2.58;;;;;;;18.59;45.66;99954.34;4993564;28;20026;-69
2023/04/24 04:56:24;;;;;;;4.07;2.50;;;;;;;18.57;45.70;99957.13;4999785;28;20038;-68
2023/04/24 04:58:50;;;;;;;4.15;2.40;;;;;;;18.59;45.69;99962.25;4992418;28;20030;-68
2023/04/24 05:01:15;;;;;;;4.43;2.20;;;;;;;18.57;45.54;99972.97;4989828;28;20084;-68
2023/04/24 05:03:41;;;;;;;4.10;2.20;;;;;;;18.58;45.67;99965.88;4990634;28;20095;-68
2023/04/24 05:06:06;;;;;;;4.18;2.08;;;;;;;18.58;45.65;99966.72;4968856;28;20033;-68
2023/04/24 05:08:31;;;;;;;4.20;2.25;;;;;;;18.57;45.68;99966.84;4981966;28;20022;-68
2023/04/24 05:10:57;;;;;;;3.75;2.08;;;;;;;18.57;46.02;99961.59;4968473;28;20041;-69
2023/04/24 05:13:22;;;;;;;5.97;2.42;;;;;;;18.57;45.57;99972.13;4990664;28;20034;-68
2023/04/24 05:15:47;;;;;;;4.20;2.00;;;;;;;18.55;45.72;99968.78;4988529;28;20034;-69
2023/04/24 05:18:13;;;;;;;4.57;2.15;;;;;;;18.56;45.82;99971.28;4988413;28;20033;-68
2023/04/24 05:20:38;;;;;;;3.70;2.00;;;;;;;18.53;46.05;99973.41;4969008;28;20322;-68
2023/04/24 05:23:03;;;;;;;4.30;1.77;;;;;;;18.55;45.93;99974.06;4995260;28;20045;-69
2023/04/24 05:25:29;;;;;;;3.30;1.70;;;;;;;18.53;46.18;99978.69;4998817;28;20081;-68
2023/04/24 05:27:54;;;;;;;4.28;1.73;;;;;;;18.60;46.01;99980.56;4985768;28;20037;-69
2023/04/24 05:30:19;;;;;;;3.42;1.67;;;;;;;18.60;46.10;99983.22;4985633;28;20463;-68
2023/04/24 05:32:45;;;;;;;2.78;1.60;;;;;;;18.61;46.47;99984.03;4991984;28;20039;-68
2023/04/24 05:35:11;;;;;;;2.72;1.52;;;;;;;18.65;46.10;99983.59;4973921;28;20103;-68
2023/04/24 05:37:36;;;;;;;2.70;1.50;;;;;;;18.68;46.02;100007.06;4989260;28;20475;-68
2023/04/24 05:40:04;;;;;;;2.53;1.27;;;;;;;18.71;46.24;100000.66;4968839;28;20034;-68
2023/04/24 05:42:29;;;;;;;3.13;1.58;;;;;;;18.72;46.16;100009.41;4991199;28;20128;-68
2023/04/24 05:44:55;;;;;;;3.47;1.48;;;;;;;18.75;46.01;100009.91;4973124;28;20038;-67
2023/04/24 05:47:21;;;;;;;2.15;1.10;;;;;;;18.76;46.12;100016.88;4994406;28;20117;-67
2023/04/24 05:49:47;;;;;;;2.88;1.33;;;;;;;18.80;46.06;100018.25;4965414;28;20026;-69
2023/04/24 05:52:12;;;;;;;3.40;1.48;;;;;;;18.81;45.92;100030.44;4990973;28;20040;-68
2023/04/24 05:54:37;;;;;;;2.47;1.08;;;;;;;18.82;45.71;100024.19;4995571;28;20042;-69
2023/04/24 05:57:07;;;;;;;2.22;1.20;;;;;;;18.86;45.92;100032.69;4993712;28;20128;-68
2023/04/24 05:59:33;;;;;;;3.03;1.23;;;;;;;18.87;45.80;100036.13;5002200;28;20034;-68
2023/04/24 06:01:58;;;;;;;2.22;1.10;;;;;;;18.91;45.94;100034.88;4985748;28;20061;-68
2023/04/24 06:04:23;;;;;;;1.80;1.00;;;;;;;18.91;45.83;100033.06;4992942;28;20466;-67
2023/04/24 06:06:50;;;;;;;2.57;1.00;;;;;;;18.94;45.76;100037.22;4998212;28;20772;-68
2023/04/24 06:09:16;;;;;;;2.78;1.10;;;;;;;18.90;45.87;100036.69;4996591;28;20282;-67
2023/04/24 06:11:42;;;;;;;2.42;1.08;;;;;;;18.91;45.80;100034.88;4997012;28;20078;-68
2023/04/24 06:14:07;;;;;;;3.08;1.20;;;;;;;18.92;45.82;100044.47;4999603;28;20062;-68
2023/04/24 06:16:33;;;;;;;2.95;1.10;;;;;;;18.93;45.68;100046.97;4995168;28;20069;-68
2023/04/24 06:18:58;;;;;;;2.75;1.20;;;;;;;18.95;45.70;100052.91;5001364;28;20061;-68
2023/04/24 06:21:23;;;;;;;1.77;0.90;;;;;;;18.95;45.67;100052.91;5002038;28;20574;-69
2023/04/24 06:23:49;;;;;;;2.83;1.10;;;;;;;18.95;45.63;100071.41;4998175;28;20062;-69
2023/04/24 06:26:14;;;;;;;2.65;0.90;;;;;;;18.94;46.03;100064.44;4995099;28;20433;-69
2023/04/24 06:28:40;;;;;;;6.70;2.17;;;;;;;18.94;45.72;100077.66;4995161;28;20030;-66
2023/04/24 06:31:05;;;;;;;2.97;1.17;;;;;;;18.95;45.96;100081.13;4984938;28;20118;-68
2023/04/24 06:33:30;;;;;;;1.97;1.10;;;;;;;18.95;45.82;100097.78;4982300;28;20271;-68
2023/04/24 06:35:56;;;;;;;3.08;1.23;;;;;;;18.95;45.92;100104.91;4997733;28;20765;-69
2023/04/24 06:38:21;;;;;;;2.33;1.17;;;;;;;18.93;45.95;100109.47;4999694;28;20030;-68
2023/04/24 06:40:46;;;;;;;4.68;1.52;;;;;;;18.95;45.96;100124.19;5003117;28;20042;-68
2023/04/24 06:43:12;;;;;;;2.63;1.20;;;;;;;18.94;45.94;100130.44;5003630;28;20036;-68
2023/04/24 06:45:39;;;;;;;2.28;1.15;;;;;;;18.94;45.81;100135.72;4998370;28;20085;-70
2023/04/24 06:48:04;;;;;;;2.88;1.33;;;;;;;18.91;46.03;100137.84;4969221;28;20767;-68
2023/04/24 06:50:30;;;;;;;3.67;1.40;;;;;;;18.94;46.21;100148.09;4989568;28;20036;-66
2023/04/24 06:52:55;;;;;;;3.50;1.30;;;;;;;18.94;46.51;100159.50;4993288;28;20044;-71
2023/04/24 06:55:20;;;;;;;3.25;1.20;;;;;;;18.92;46.23;100173.84;4998673;28;20034;-70
2023/04/24 06:57:46;;;;;;;3.28;1.45;;;;;;;18.91;46.36;100169.53;5003294;28;20042;-70
2023/04/24 07:00:12;;;;;;;11.30;1.52;;;;;;;18.93;46.29;100189.53;5003062;28;20053;-69
2023/04/24 07:02:37;;;;;;;3.90;1.83;;;;;;;18.93;46.33;100188.69;5003154;28;20384;-70
2023/04/24 07:05:03;;;;;;;3.58;1.58;;;;;;;18.94;46.40;100208.84;5002304;28;20532;-69
2023/04/24 07:07:29;;;;;;;4.75;1.50;;;;;;;18.93;46.52;100210.66;4977115;28;20557;-71
2023/04/24 07:09:56;;;;;;;3.97;1.30;;;;;;;18.93;46.61;100221.22;4984523;28;20054;-69
2023/04/24 07:12:21;;;;;;;3.10;1.52;;;;;;;18.87;46.72;100210.38;4985189;28;20030;-70
2023/04/24 07:14:47;;;;;;;3.42;1.48;;;;;;;18.93;46.59;100237.06;4989188;28;20075;-72
2023/04/24 07:17:13;;;;;;;3.85;1.60;;;;;;;18.93;46.68;100241.50;5000487;28;20881;-69
2023/04/24 07:19:38;;;;;;;3.55;1.52;;;;;;;18.93;46.80;100247.63;4997311;28;20030;-69
2023/04/24 07:22:03;;;;;;;3.00;1.70;;;;;;;18.93;46.90;100252.91;4983580;28;20038;-69
2023/04/24 07:24:31;;;;;;;2.72;1.48;;;;;;;18.95;46.91;100265.97;4991497;28;20045;-69
2023/04/24 07:26:57;;;;;;;4.45;1.70;;;;;;;18.97;46.93;100264.81;4984930;28;20113;-69
2023/04/24 07:29:22;;;;;;;3.70;1.60;;;;;;;18.96;47.01;100268.47;4997265;28;20581;-69
2023/04/24 07:31:48;;;;;;;4.18;1.50;;;;;;;18.99;47.07;100268.19;4986968;28;20640;-69
2023/04/24 07:34:13;;;;;;;5.97;1.73;;;;;;;18.99;46.87;100278.75;4978863;28;20432;-68
2023/04/24 07:36:38;;;;;;;4.10;1.70;;;;;;;18.96;47.26;100267.59;4966708;28;20488;-69
2023/04/24 07:39:04;;;;;;;5.38;1.70;;;;;;;18.99;47.19;100304.28;4989239;28;20386;-68
2023/04/24 07:41:30;;;;;;;3.70;1.70;;;;;;;19.02;47.11;100325.13;4985016;28;20148;-69
2023/04/24 07:43:55;;;;;;;4.05;2.03;;;;;;;18.98;47.24;100319.31;4983934;28;20152;-68
2023/04/24 07:46:21;;;;;;;3.47;1.60;;;;;;;18.99;46.86;100323.63;4983867;28;20157;-70
2023/04/24 07:48:47;;;;;;;3.63;1.70;;;;;;;19.01;46.91;100345.44;4997886;28;20109;-73
2023/04/24 07:51:14;;;;;;;3.90;1.50;;;;;;;18.99;47.19;100342.13;5002595;28;20098;-71
2023/04/24 07:53:39;;;;;;;3.65;1.67;;;;;;;19.02;47.19;100343.63;5002238;28;20111;-70
2023/04/24 07:56:05;;;;;;;2.72;1.50;;;;;;;19.02;47.35;100349.72;5002195;28;20038;-72
2023/04/24 07:58:30;;;;;;;5.28;1.77;;;;;;;19.04;47.03;100368.06;5001554;28;20034;-70
2023/04/24 08:00:55;;;;;;;4.35;1.70;;;;;;;19.01;47.34;100361.28;4982700;28;20045;-69
2023/04/24 08:03:21;;;;;;;3.25;1.65;;;;;;;19.03;47.41;100371.72;4982663;28;20044;-72
2023/04/24 08:05:46;;;;;;;5.85;1.92;;;;;;;19.05;47.19;100376.84;4982323;28;20360;-71
2023/04/24 08:08:12;;;;;;;5.70;1.95;;;;;;;19.05;47.20;100380.31;4994738;28;20049;-71
2023/04/24 08:10:37;;;;;;;4.30;1.75;;;;;;;19.05;47.19;100388.22;4999574;28;20314;-69
2023/04/24 08:13:03;;;;;;;4.43;1.77;;;;;;;19.05;47.27;100385.59;4990764;28;20110;-69
2023/04/24 08:15:28;;;;;;;3.95;1.70;;;;;;;19.04;47.12;100389.19;4982247;28;20121;-70
2023/04/24 08:17:53;;;;;;;6.13;1.70;;;;;;;19.04;47.25;100397.13;4990382;28;20069;-69
2023/04/24 08:20:19;;;;;;;4.38;1.65;;;;;;;19.04;47.33;100397.13;4986133;28;20038;-69
2023/04/24 08:22:47;;;;;;;4.93;2.10;;;;;;;19.05;47.45;100404.09;5001968;28;20026;-68
2023/04/24 08:25:12;;;;;;;4.05;2.15;;;;;;;19.05;47.25;100400.63;4994766;28;20402;-68
2023/04/24 08:27:38;;;;;;;5.80;2.13;;;;;;;19.05;47.25;100412.00;4998389;28;20503;-69
2023/04/24 08:30:05;;;;;;;4.93;1.90;;;;;;;19.05;46.97;100414.66;4986023;28;20435;-69
2023/04/24 08:32:30;;;;;;;5.20;1.95;;;;;;;19.05;47.48;100422.56;4985533;28;20449;-69
2023/04/24 08:34:57;;;;;;;4.05;1.70;;;;;;;19.02;47.21;100425.50;4982076;28;20141;-69
2023/04/24 08:37:23;;;;;;;5.07;1.92;;;;;;;19.06;47.35;100424.25;4981968;28;20061;-69
2023/04/24 08:39:49;;;;;;;4.72;1.95;;;;;;;19.04;47.42;100431.44;4982176;28;20074;-69
2023/04/24 08:42:16;;;;;;;4.45;1.90;;;;;;;19.05;47.31;100443.69;4982685;28;20046;-71
2023/04/24 08:44:42;;;;;;;4.43;1.75;;;;;;;19.05;47.32;100446.34;5001541;28;20088;-69
2023/04/24 08:47:07;;;;;;;5.40;2.00;;;;;;;19.05;47.18;100458.72;5000866;28;20421;-70
2023/04/24 08:49:35;;;;;;;6.25;1.98;;;;;;;19.04;47.44;100457.88;4981796;28;20118;-69
2023/04/24 08:52:02;;;;;;;4.93;1.85;;;;;;;19.04;47.33;100460.50;4994011;28;20030;-70
2023/04/24 08:54:28;;;;;;;5.53;1.70;;;;;;;19.06;47.52;100466.50;5001775;28;20041;-70
2023/04/24 08:56:58;;;;;;;6.13;2.00;;;;;;;19.05;47.51;100469.28;5001277;28;20044;-70
2023/04/24 08:59:24;;;;;;;4.97;1.88;;;;;;;19.05;47.66;100475.38;4995575;28;20037;-70
2023/04/24 09:01:51;;;;;;;4.45;1.70;;;;;;;19.06;47.54;100479.72;4999996;28;20033;-70
2023/04/24 09:04:19;;;;;;;6.82;2.00;;;;;;;19.05;47.54;100482.50;4987151;28;20037;-69
2023/04/24 09:06:45;;;;;;;8.30;2.10;;;;;;;19.06;47.52;100486.78;4974791;28;20084;-68
2023/04/24 09:09:11;;;;;;;5.88;2.00;;;;;;;19.06;47.52;100482.34;5001127;28;20030;-69
2023/04/24 09:11:37;;;;;;;5.07;1.80;;;;;;;19.07;47.63;100494.56;4988368;28;20062;-69
2023/04/24 09:14:03;;;;;;;5.93;1.95;;;;;;;19.08;47.38;100493.59;4991930;28;20088;-69
2023/04/24 09:16:29;;;;;;;6.05;1.88;;;;;;;19.04;47.26;100497.47;5001103;28;20471;-70
2023/04/24 09:18:55;;;;;;;5.38;1.98;;;;;;;19.09;47.17;100515.56;4992444;28;21071;-70
2023/04/24 09:21:23;;;;;;;4.32;1.58;;;;;;;19.15;46.91;100512.34;4999831;28;20034;-70
2023/04/24 09:23:59;;;;;;;7.03;1.85;;;;;;;19.12;46.96;100520.56;4998884;28;20117;-67
2023/04/24 09:26:24;;;;;;;6.38;2.10;;;;;;;19.10;47.04;100520.69;4995992;28;20141;-72
2023/04/24 09:28:50;;;;;;;6.85;2.20;;;;;;;19.14;47.25;100527.38;4993254;28;20065;-71
2023/04/24 09:31:18;;;;;;;7.05;1.70;;;;;;;19.11;47.16;100538.22;4998218;28;20477;-72
2023/04/24 09:33:57;;;;;;;6.90;1.88;;;;;;;19.05;47.38;100544.06;4987116;28;20039;-73
2023/04/24 09:36:32;;;;;;;5.93;1.73;;;;;;;18.99;47.48;100544.59;4986028;28;20104;-71
2023/04/24 09:39:02;;;;;;;4.95;1.92;;;;;;;19.00;47.35;100556.84;4974247;28;20494;-71
2023/04/24 09:41:28;;;;;;;8.18;2.15;;;;;;;19.02;47.35;100562.81;4992661;28;20037;-66
2023/04/24 09:43:55;;;;;;;5.45;1.77;;;;;;;18.98;47.39;100553.53;4994474;28;20040;-70
2023/04/24 09:46:23;;;;;;;4.90;1.80;;;;;;;19.01;46.99;100566.44;4984275;28;20054;-74
2023/04/24 09:48:49;;;;;;;6.07;1.75;;;;;;;19.05;47.09;100572.28;4992546;28;20044;-68
2023/04/24 09:51:15;;;;;;;9.23;1.73;;;;;;;19.03;46.99;100569.78;4994320;28;20035;-68
2023/04/24 09:53:45;;;;;;;6.28;2.15;;;;;;;19.03;47.05;100573.25;5002918;28;20042;-67
2023/04/24 09:56:12;;;;;;;4.80;1.73;;;;;;;19.10;47.08;100573.53;5000514;28;20398;-72
2023/04/24 09:58:38;;;;;;;5.75;1.70;;;;;;;19.07;46.95;100587.00;4996014;28;20555;-71
2023/04/24 10:01:04;;;;;;;7.28;1.80;;;;;;;19.08;46.94;100591.31;5003401;28;20120;-67
2023/04/24 10:03:31;;;;;;;6.05;1.60;;;;;;;19.08;46.55;100588.69;4999746;28;20035;-67
2023/04/24 10:06:08;;;;;;;5.30;1.90;;;;;;;19.07;46.87;100584.34;5003663;28;20057;-71
2023/04/24 10:08:35;;;;;;;4.50;1.50;;;;;;;19.23;46.86;100588.28;4994929;28;20036;-68
2023/04/24 10:11:01;;;;;;;5.38;1.70;;;;;;;19.31;46.24;100596.34;4988404;28;21431;-69
2023/04/24 10:13:27;;;;;;;5.82;1.80;;;;;;;19.35;46.11;100601.22;4986949;28;20022;-67
2023/04/24 10:15:53;;;;;;;4.78;1.50;;;;;;;19.39;45.93;100599.13;4968184;28;20055;-69
2023/04/24 10:18:20;;;;;;;6.75;1.60;;;;;;;19.36;46.01;100594.97;4986832;28;20030;-68
2023/04/24 10:20:46;;;;;;;5.22;1.60;;;;;;;19.31;46.25;100599.84;4986520;28;20029;-69
2023/04/24 10:23:12;;;;;;;6.43;1.70;;;;;;;19.30;46.42;100598.16;4993197;28;20053;-69
2023/04/24 10:25:37;;;;;;;8.57;1.60;;;;;;;19.30;46.04;100605.25;5000236;28;20576;-68
2023/04/24 10:28:03;;;;;;;4.55;1.48;;;;;;;19.37;46.15;100616.94;4997767;28;20460;-69
2023/04/24 10:30:37;;;;;;;4.22;1.40;;;;;;;19.34;45.96;100607.50;4995579;28;20081;-70
2023/04/24 10:33:03;;;;;;;3.83;1.27;;;;;;;19.36;46.08;100617.94;4992684;28;20029;-68
2023/04/24 10:35:32;;;;;;;5.20;1.48;;;;;;;19.38;46.25;100626.53;4985195;28;20442;-69
2023/04/24 10:38:02;;;;;;;4.72;1.50;;;;;;;19.39;45.96;100631.69;5003448;28;20058;-69
2023/04/24 10:40:33;;;;;;;9.60;1.85;;;;;;;19.36;46.17;100628.50;4985432;28;20120;-70
2023/04/24 10:42:59;;;;;;;5.00;1.23;;;;;;;19.31;46.06;100633.34;4988090;28;20053;-69
2023/04/24 10:45:25;;;;;;;3.75;1.20;;;;;;;19.28;46.14;100644.19;4983372;28;20041;-70
2023/04/24 10:47:57;;;;;;;5.00;1.50;;;;;;;19.21;46.51;100638.63;4995083;28;20482;-69
2023/04/24 10:50:22;;;;;;;5.15;1.23;;;;;;;19.14;46.78;100635.69;4990627;28;20121;-69
2023/04/24 10:52:51;;;;;;;5.55;1.38;;;;;;;19.12;46.77;100642.91;4996129;28;20833;-69
2023/04/24 10:55:36;;;;;;;5.25;1.40;;;;;;;19.11;46.81;100640.41;4995080;28;20029;-68
2023/04/24 10:58:05;;;;;;;7.03;1.38;;;;;;;19.09;46.73;100648.47;4990138;28;20490;-69
2023/04/24 11:00:30;;;;;;;6.43;1.50;;;;;;;19.08;46.56;100652.06;5000538;28;20522;-70
2023/04/24 11:02:57;;;;;;;4.05;1.27;;;;;;;19.07;46.69;100649.56;5002689;28;20156;-72
2023/04/24 11:05:41;;;;;;;5.53;1.40;;;;;;;19.02;46.79;100661.34;4991906;28;20040;-69
2023/04/24 11:08:14;;;;;;;3.50;1.15;;;;;;;19.02;46.83;100656.06;4989922;28;20730;-69
2023/04/24 11:10:47;;;;;;;5.10;1.40;;;;;;;19.00;46.66;100651.91;4991253;28;20049;-70
2023/04/24 11:13:22;;;;;;;6.10;1.20;;;;;;;19.00;46.85;100662.47;4998367;28;20034;-71
2023/04/24 11:16:20;;;;;;;3.90;1.00;;;;;;;18.98;46.65;100659.97;4997948;28;20065;-71
2023/04/24 11:18:52;;;;;;;4.15;1.20;;;;;;;19.01;46.44;100658.88;4965185;28;20042;-70
2023/04/24 11:21:18;;;;;;;5.18;2.08;;;;;;;19.01;46.52;100680.00;4983167;28;21138;-69
2023/04/24 11:23:45;;;;;;;3.95;1.48;;;;;;;18.99;46.20;100676.66;4983693;28;20038;-70